sensor_id;sensor_type;location;lat;lon;timestamp;P1;durP1;ratioP1;P2;durP2;ratioP2
66609;SDS011;53468;48.276;14.416;2023-11-21T00:03:32;5.20;;;2.83;;
66609;SDS011;53468;48.276;14.416;2023-11-21T00:08:34;8.07;;;4.05;;
66609;SDS011;53468;48.276;14.416;2023-11-21T00:13:38;5.85;;;2.80;;
66609;SDS011;53468;48.276;14.416;2023-11-21T00:18:40;7.03;;;3.83;;
66609;SDS011;53468;48.276;14.416;2023-11-21T00:23:42;8.57;;;4.03;;
66609;SDS011;53468;48.276;14.416;2023-11-21T00:28:46;6.68;;;3.65;;
66609;SDS011;53468;48.276;14.416;2023-11-21T00:33:48;9.57;;;4.45;;
66609;SDS011;53468;48.276;14.416;2023-11-21T00:56:10;5.32;;;3.38;;
66609;SDS011;53468;48.276;14.416;2023-11-21T01:01:25;8.38;;;4.55;;
66609;SDS011;53468;48.276;14.416;2023-11-21T01:06:56;10.10;;;4.40;;
66609;SDS011;53468;48.276;14.416;2023-11-21T01:12:06;7.65;;;3.78;;
66609;SDS011;53468;48.276;14.416;2023-11-21T01:17:43;9.02;;;4.03;;
66609;SDS011;53468;48.276;14.416;2023-11-21T01:23:25;8.55;;;4.38;;
66609;SDS011;53468;48.276;14.416;2023-11-21T01:28:37;9.25;;;3.97;;
66609;SDS011;53468;48.276;14.416;2023-11-21T01:34:05;9.43;;;3.70;;
66609;SDS011;53468;48.276;14.416;2023-11-21T01:39:29;8.25;;;4.25;;
66609;SDS011;53468;48.276;14.416;2023-11-21T01:45:03;7.78;;;3.80;;
66609;SDS011;53468;48.276;14.416;2023-11-21T01:50:15;6.60;;;3.75;;
66609;SDS011;53468;48.276;14.416;2023-11-21T02:01:24;8.73;;;4.10;;
66609;SDS011;53468;48.276;14.416;2023-11-21T02:06:56;7.47;;;4.25;;
66609;SDS011;53468;48.276;14.416;2023-11-21T02:12:18;6.30;;;3.83;;
66609;SDS011;53468;48.276;14.416;2023-11-21T02:17:40;5.15;;;3.13;;
66609;SDS011;53468;48.276;14.416;2023-11-21T02:23:14;6.18;;;3.50;;
66609;SDS011;53468;48.276;14.416;2023-11-21T02:28:45;9.25;;;4.47;;
66609;SDS011;53468;48.276;14.416;2023-11-21T02:34:04;10.80;;;5.13;;
66609;SDS011;53468;48.276;14.416;2023-11-21T02:39:57;14.65;;;5.70;;
66609;SDS011;53468;48.276;14.416;2023-11-21T02:45:16;12.40;;;5.95;;
66609;SDS011;53468;48.276;14.416;2023-11-21T02:50:26;12.77;;;6.00;;
66609;SDS011;53468;48.276;14.416;2023-11-21T02:56:05;8.68;;;5.55;;
66609;SDS011;53468;48.276;14.416;2023-11-21T03:01:49;11.27;;;6.32;;
66609;SDS011;53468;48.276;14.416;2023-11-21T03:07:31;10.65;;;6.18;;
66609;SDS011;53468;48.276;14.416;2023-11-21T03:13:02;13.75;;;5.80;;
66609;SDS011;53468;48.276;14.416;2023-11-21T03:18:39;13.15;;;5.50;;
66609;SDS011;53468;48.276;14.416;2023-11-21T03:36:06;8.75;;;5.22;;
66609;SDS011;53468;48.276;14.416;2023-11-21T03:41:48;9.30;;;4.93;;
66609;SDS011;53468;48.276;14.416;2023-11-21T03:47:04;10.65;;;5.60;;
66609;SDS011;53468;48.276;14.416;2023-11-21T03:53:09;11.13;;;5.15;;
66609;SDS011;53468;48.276;14.416;2023-11-21T03:58:49;11.23;;;5.87;;
66609;SDS011;53468;48.276;14.416;2023-11-21T04:04:09;9.38;;;4.90;;
66609;SDS011;53468;48.276;14.416;2023-11-21T04:15:42;11.27;;;5.95;;
66609;SDS011;53468;48.276;14.416;2023-11-21T04:20:59;16.55;;;5.68;;
66609;SDS011;53468;48.276;14.416;2023-11-21T04:26:11;12.13;;;6.38;;
66609;SDS011;53468;48.276;14.416;2023-11-21T04:32:05;12.75;;;6.28;;
66609;SDS011;53468;48.276;14.416;2023-11-21T04:37:34;8.27;;;5.43;;
66609;SDS011;53468;48.276;14.416;2023-11-21T04:43:02;11.00;;;5.18;;
66609;SDS011;53468;48.276;14.416;2023-11-21T04:54:10;8.57;;;5.28;;
66609;SDS011;53468;48.276;14.416;2023-11-21T04:59:44;9.05;;;5.75;;
66609;SDS011;53468;48.276;14.416;2023-11-21T05:05:30;13.52;;;5.60;;
66609;SDS011;53468;48.276;14.416;2023-11-21T05:10:48;7.95;;;4.65;;
66609;SDS011;53468;48.276;14.416;2023-11-21T05:16:48;7.65;;;4.47;;
66609;SDS011;53468;48.276;14.416;2023-11-21T05:22:20;10.05;;;5.07;;
66609;SDS011;53468;48.276;14.416;2023-11-21T05:27:48;9.23;;;5.03;;
66609;SDS011;53468;48.276;14.416;2023-11-21T05:33:04;6.13;;;3.90;;
66609;SDS011;53468;48.276;14.416;2023-11-21T05:38:37;9.07;;;4.47;;
66609;SDS011;53468;48.276;14.416;2023-11-21T05:49:49;9.60;;;4.70;;
66609;SDS011;53468;48.276;14.416;2023-11-21T05:55:22;7.50;;;4.25;;
66609;SDS011;53468;48.276;14.416;2023-11-21T06:06:30;6.72;;;4.20;;
66609;SDS011;53468;48.276;14.416;2023-11-21T06:11:57;7.18;;;3.85;;
66609;SDS011;53468;48.276;14.416;2023-11-21T06:17:09;7.68;;;3.97;;
66609;SDS011;53468;48.276;14.416;2023-11-21T07:16:58;11.50;;;6.20;;
66609;SDS011;53468;48.276;14.416;2023-11-21T08:29:26;16.35;;;5.95;;
66609;SDS011;53468;48.276;14.416;2023-11-21T08:35:07;11.68;;;4.68;;
66609;SDS011;53468;48.276;14.416;2023-11-21T09:10:31;6.88;;;3.85;;
66609;SDS011;53468;48.276;14.416;2023-11-21T09:15:42;7.68;;;4.38;;
66609;SDS011;53468;48.276;14.416;2023-11-21T09:20:50;8.02;;;4.00;;
66609;SDS011;53468;48.276;14.416;2023-11-21T14:51:39;5.43;;;2.55;;
66609;SDS011;53468;48.276;14.416;2023-11-21T14:57:08;4.75;;;2.33;;
66609;SDS011;53468;48.276;14.416;2023-11-21T15:02:35;7.15;;;3.08;;
66609;SDS011;53468;48.276;14.416;2023-11-21T15:08:04;4.22;;;2.10;;
66609;SDS011;53468;48.276;14.416;2023-11-21T15:13:23;7.03;;;2.85;;
66609;SDS011;53468;48.276;14.416;2023-11-21T15:18:34;5.13;;;2.65;;
66609;SDS011;53468;48.276;14.416;2023-11-21T15:23:53;5.07;;;2.65;;
66609;SDS011;53468;48.276;14.416;2023-11-21T15:28:59;7.60;;;2.95;;
66609;SDS011;53468;48.276;14.416;2023-11-21T15:34:31;9.70;;;3.20;;
66609;SDS011;53468;48.276;14.416;2023-11-21T15:47:04;8.05;;;4.32;;
66609;SDS011;53468;48.276;14.416;2023-11-21T20:38:06;11.85;;;7.75;;
66609;SDS011;53468;48.276;14.416;2023-11-21T20:43:58;10.10;;;7.43;;
66609;SDS011;53468;48.276;14.416;2023-11-21T20:56:14;15.35;;;8.10;;
66609;SDS011;53468;48.276;14.416;2023-11-21T21:07:20;10.32;;;6.45;;
66609;SDS011;53468;48.276;14.416;2023-11-21T21:25:26;11.82;;;7.30;;
66609;SDS011;53468;48.276;14.416;2023-11-21T23:02:09;13.30;;;8.68;;
